Time;durP1;ratioP1;P1;durP2;ratioP2;P2;SDS_P1;SDS_P2;PMS_P1;PMS_P2;Temp;Humidity;BMP_temperature;BMP_pressure;BME280_temperature;BME280_humidity;BME280_pressure;Samples;Min_cycle;Max_cycle;Signal;HPM_P1;HPM_P2
2022/02/23 00:01:34;;;;;;;11.77;3.15;;;4.60;78.10;;;;;;5005135;28;20042;-70
2022/02/23 00:04:02;;;;;;;20.98;3.67;;;4.70;77.90;;;;;;4990318;28;20045;-71
2022/02/23 00:06:29;;;;;;;8.93;2.78;;;4.80;77.20;;;;;;4992534;28;22240;-70
2022/02/23 00:08:56;;;;;;;10.07;3.15;;;4.90;76.80;;;;;;4991083;28;20118;-70
2022/02/23 00:11:23;;;;;;;7.90;2.60;;;4.70;78.00;;;;;;4991894;28;20128;-70
2022/02/23 00:13:50;;;;;;;6.85;2.47;;;4.50;79.30;;;;;;4992796;28;20054;-71
2022/02/23 00:16:17;;;;;;;8.00;2.20;;;4.50;79.60;;;;;;4990646;28;20061;-72
2022/02/23 00:18:44;;;;;;;10.38;2.65;;;4.40;79.80;;;;;;4986863;28;20038;-70
2022/02/23 00:21:11;;;;;;;7.38;2.65;;;4.50;79.60;;;;;;4990448;28;20577;-70
2022/02/23 00:23:38;;;;;;;8.52;3.50;;;4.60;79.10;;;;;;4990518;28;21251;-70
2022/02/23 00:26:05;;;;;;;6.07;2.63;;;4.60;79.20;;;;;;4988759;28;20149;-70
2022/02/23 00:28:32;;;;;;;5.45;2.08;;;4.70;79.40;;;;;;4991829;28;20046;-70
2022/02/23 00:30:59;;;;;;;9.38;2.35;;;4.30;79.90;;;;;;4991157;28;20057;-71
2022/02/23 00:33:26;;;;;;;6.75;2.38;;;4.20;81.40;;;;;;5005011;28;20053;-71
2022/02/23 00:35:53;;;;;;;11.27;2.67;;;4.30;81.60;;;;;;4990665;28;20095;-71
2022/02/23 00:38:21;;;;;;;6.25;2.15;;;4.40;81.10;;;;;;5006098;28;20046;-71
2022/02/23 00:40:48;;;;;;;6.45;1.88;;;4.50;80.60;;;;;;4990844;28;20072;-71
2022/02/23 00:43:15;;;;;;;6.88;2.47;;;4.60;79.80;;;;;;5007727;28;20100;-71
2022/02/23 00:45:42;;;;;;;8.50;2.50;;;4.60;79.90;;;;;;4972564;28;20148;-71
2022/02/23 00:48:09;;;;;;;7.80;2.42;;;4.50;80.90;;;;;;4991968;28;20053;-71
2022/02/23 00:50:36;;;;;;;5.20;2.13;;;4.70;80.70;;;;;;4992416;28;20126;-71
2022/02/23 00:53:03;;;;;;;6.38;2.70;;;4.80;80.40;;;;;;4988214;28;20718;-71
2022/02/23 00:55:30;;;;;;;7.78;2.65;;;4.90;79.20;;;;;;4992120;28;20097;-71
2022/02/23 00:57:57;;;;;;;8.35;2.83;;;4.90;79.50;;;;;;4993035;28;20050;-71
2022/02/23 01:00:25;;;;;;;9.05;2.67;;;4.90;79.70;;;;;;4993698;28;20042;-70
2022/02/23 01:02:54;;;;;;;7.75;2.08;;;4.90;79.70;;;;;;4991212;28;20070;-70
2022/02/23 01:05:21;;;;;;;8.40;2.83;;;5.00;79.50;;;;;;4978390;28;20041;-70
2022/02/23 01:07:48;;;;;;;9.23;3.05;;;4.90;79.20;;;;;;4992168;28;20133;-71
2022/02/23 01:10:15;;;;;;;6.70;2.83;;;5.10;79.10;;;;;;4995774;28;20054;-73
2022/02/23 01:12:42;;;;;;;9.02;2.25;;;5.10;78.60;;;;;;4994449;28;21008;-71
2022/02/23 01:15:10;;;;;;;6.22;2.55;;;5.10;79.00;;;;;;4994206;28;20061;-71
2022/02/23 01:17:38;;;;;;;11.50;2.35;;;5.10;78.50;;;;;;4995635;28;20132;-71
2022/02/23 01:20:06;;;;;;;7.20;2.67;;;5.10;79.20;;;;;;4995420;28;20038;-71
2022/02/23 01:22:33;;;;;;;6.65;2.10;;;5.00;78.20;;;;;;4996601;28;20537;-71
2022/02/23 01:25:01;;;;;;;8.35;2.30;;;5.10;78.00;;;;;;4993177;28;20652;-70
2022/02/23 01:27:28;;;;;;;6.40;1.92;;;5.30;77.50;;;;;;4994972;28;20890;-70
2022/02/23 01:29:56;;;;;;;6.50;2.58;;;5.30;77.20;;;;;;4995524;28;20049;-71
2022/02/23 01:32:24;;;;;;;5.90;2.10;;;5.30;77.40;;;;;;4997022;28;20124;-71
2022/02/23 01:34:51;;;;;;;5.35;2.28;;;5.20;78.00;;;;;;4994529;28;20069;-70
2022/02/23 01:37:18;;;;;;;7.25;2.13;;;5.10;79.10;;;;;;4979344;28;22293;-71
2022/02/23 01:39:45;;;;;;;9.32;2.53;;;4.70;79.70;;;;;;4995167;28;20049;-71
2022/02/23 01:42:12;;;;;;;10.05;1.90;;;4.80;80.40;;;;;;4996357;28;20033;-71
2022/02/23 01:44:40;;;;;;;5.97;1.83;;;4.90;79.80;;;;;;4991336;28;20124;-70
2022/02/23 01:47:07;;;;;;;7.18;2.03;;;4.90;79.90;;;;;;5012585;28;20104;-70
2022/02/23 01:49:34;;;;;;;8.23;2.20;;;4.80;79.80;;;;;;4995708;28;20138;-71
2022/02/23 01:52:03;;;;;;;9.02;2.03;;;4.80;80.90;;;;;;5008592;28;20056;-71
2022/02/23 01:54:30;;;;;;;5.60;2.13;;;4.90;80.90;;;;;;4996968;28;20049;-71
2022/02/23 01:56:57;;;;;;;8.02;2.10;;;5.00;80.30;;;;;;4994569;28;20096;-71
2022/02/23 01:59:24;;;;;;;5.03;2.15;;;5.00;80.20;;;;;;4993612;28;20131;-71
2022/02/23 02:01:54;;;;;;;9.60;2.75;;;4.80;80.90;;;;;;4994193;28;20069;-71
2022/02/23 02:04:21;;;;;;;7.65;2.25;;;4.80;81.60;;;;;;4998384;28;20038;-71
2022/02/23 02:06:52;;;;;;;7.93;2.00;;;4.90;80.60;;;;;;4999881;28;20323;-71
2022/02/23 02:09:19;;;;;;;7.57;2.03;;;5.10;79.50;;;;;;5009075;28;20066;-71
2022/02/23 02:11:46;;;;;;;10.23;1.88;;;5.40;78.70;;;;;;5010103;28;20137;-70
2022/02/23 02:14:13;;;;;;;6.43;2.67;;;5.50;78.10;;;;;;4993847;28;20112;-70
2022/02/23 02:16:40;;;;;;;6.40;2.17;;;5.40;78.20;;;;;;4993183;28;20062;-71
2022/02/23 02:19:08;;;;;;;7.60;1.73;;;5.40;78.30;;;;;;4991182;28;20065;-71
2022/02/23 02:22:01;;;;;;;4.95;2.17;;;5.30;79.10;;;;;;4994785;28;20038;-71
2022/02/23 02:24:31;;;;;;;5.25;1.50;;;5.10;79.80;;;;;;4995691;28;20046;-71
2022/02/23 02:27:00;;;;;;;5.22;2.10;;;5.20;80.90;;;;;;4994655;28;20054;-71
2022/02/23 02:29:27;;;;;;;6.07;1.80;;;5.20;79.60;;;;;;4993555;28;20046;-70
2022/02/23 02:31:55;;;;;;;5.88;1.60;;;5.20;79.80;;;;;;5008661;28;20383;-71
2022/02/23 02:34:22;;;;;;;8.10;2.10;;;5.10;81.00;;;;;;4992973;28;20049;-71
2022/02/23 02:36:49;;;;;;;6.47;1.98;;;5.20;80.40;;;;;;4988560;28;20057;-71
2022/02/23 02:39:21;;;;;;;6.85;1.92;;;5.30;79.50;;;;;;4996310;28;20053;-70
2022/02/23 02:41:48;;;;;;;6.20;1.60;;;5.50;79.20;;;;;;4974141;28;20040;-70
2022/02/23 02:44:16;;;;;;;5.45;1.70;;;5.50;79.00;;;;;;4995239;28;20042;-70
2022/02/23 02:46:44;;;;;;;7.30;1.73;;;5.60;79.00;;;;;;4994964;28;20101;-71
2022/02/23 02:49:13;;;;;;;5.32;2.10;;;5.50;78.50;;;;;;4993383;28;20265;-71
2022/02/23 02:51:40;;;;;;;5.45;1.85;;;5.70;77.80;;;;;;4993514;28;20073;-71
2022/02/23 02:54:08;;;;;;;8.15;2.42;;;5.60;78.80;;;;;;4991636;28;20042;-71
2022/02/23 02:56:36;;;;;;;9.60;2.50;;;5.50;79.90;;;;;;4977625;28;20099;-71
2022/02/23 02:59:04;;;;;;;6.40;2.47;;;5.50;79.00;;;;;;4977717;28;20081;-71
2022/02/23 03:01:33;;;;;;;9.60;2.92;;;5.50;78.70;;;;;;4994010;28;20034;-71
2022/02/23 03:04:00;;;;;;;12.35;3.50;;;5.60;78.40;;;;;;4991855;28;21137;-71
2022/02/23 03:06:28;;;;;;;17.38;3.85;;;5.70;78.00;;;;;;4994376;28;20135;-71
2022/02/23 03:08:55;;;;;;;14.93;3.92;;;5.80;77.00;;;;;;4992597;28;20169;-70
2022/02/23 03:11:24;;;;;;;15.13;4.03;;;5.90;76.60;;;;;;4993306;28;20105;-71
2022/02/23 03:13:51;;;;;;;12.77;2.80;;;6.10;75.70;;;;;;4993105;28;20046;-71
2022/02/23 03:16:18;;;;;;;7.05;1.95;;;6.20;74.80;;;;;;5009932;28;20564;-71
2022/02/23 03:18:45;;;;;;;4.05;0.90;;;6.10;75.40;;;;;;4994417;28;20049;-70
2022/02/23 03:21:12;;;;;;;5.47;1.85;;;6.20;74.70;;;;;;4996311;28;20119;-71
2022/02/23 03:23:39;;;;;;;5.68;1.55;;;6.10;74.50;;;;;;4991357;28;20277;-71
2022/02/23 03:26:09;;;;;;;9.25;1.60;;;6.00;75.00;;;;;;4991118;28;22419;-71
2022/02/23 03:28:38;;;;;;;5.47;1.15;;;6.00;74.80;;;;;;4992248;28;20584;-71
2022/02/23 03:31:06;;;;;;;7.18;1.30;;;5.90;75.50;;;;;;4992713;28;20058;-71
2022/02/23 03:33:34;;;;;;;5.35;1.13;;;5.90;75.70;;;;;;4991546;28;20053;-71
2022/02/23 03:36:01;;;;;;;6.28;1.20;;;6.00;75.20;;;;;;4993525;28;20054;-71
2022/02/23 03:38:28;;;;;;;8.52;1.50;;;6.00;74.90;;;;;;4993745;28;20050;-71
2022/02/23 03:40:57;;;;;;;5.30;1.15;;;6.10;74.90;;;;;;4993609;28;20046;-71
2022/02/23 03:43:24;;;;;;;6.05;1.20;;;6.10;74.90;;;;;;4974601;28;20096;-71
2022/02/23 03:45:51;;;;;;;8.77;1.42;;;6.00;74.80;;;;;;4994995;28;20042;-70
2022/02/23 03:48:18;;;;;;;2.25;1.02;;;6.00;75.00;;;;;;4992262;28;20163;-71
2022/02/23 03:50:45;;;;;;;4.82;1.88;;;6.00;75.30;;;;;;4995269;28;20785;-71
2022/02/23 03:53:13;;;;;;;6.22;1.58;;;6.20;74.50;;;;;;4995591;28;20830;-71
2022/02/23 03:55:41;;;;;;;7.78;1.98;;;6.10;74.70;;;;;;4991696;28;20046;-71
2022/02/23 03:58:10;;;;;;;6.93;1.83;;;6.00;75.00;;;;;;4991488;28;21013;-71
2022/02/23 04:00:37;;;;;;;6.43;1.20;;;6.20;74.70;;;;;;4990558;28;20145;-71
2022/02/23 04:03:04;;;;;;;4.78;1.42;;;6.10;75.00;;;;;;4990773;28;20066;-71
2022/02/23 04:05:31;;;;;;;6.65;1.65;;;6.10;74.80;;;;;;4991374;28;20131;-70
2022/02/23 04:07:58;;;;;;;6.55;1.05;;;6.10;75.00;;;;;;4992666;28;20046;-71
2022/02/23 04:10:25;;;;;;;5.05;1.63;;;6.30;74.90;;;;;;5009049;28;20157;-71
2022/02/23 04:12:52;;;;;;;4.47;1.35;;;6.30;74.60;;;;;;4974587;28;20062;-70
2022/02/23 04:15:19;;;;;;;5.32;1.65;;;6.20;74.80;;;;;;4993806;28;20455;-71
2022/02/23 04:17:47;;;;;;;3.80;1.20;;;6.20;75.10;;;;;;4992840;28;20054;-71
2022/02/23 04:20:14;;;;;;;6.30;1.30;;;6.10;75.50;;;;;;4991360;28;20073;-70
2022/02/23 04:22:42;;;;;;;4.47;1.05;;;6.00;77.10;;;;;;4992430;28;20045;-71
2022/02/23 04:25:09;;;;;;;3.50;1.00;;;5.90;77.60;;;;;;4991238;28;20933;-70
2022/02/23 04:27:36;;;;;;;2.88;0.90;;;6.00;77.80;;;;;;4995025;28;20091;-70
2022/02/23 04:30:06;;;;;;;7.57;1.20;;;6.10;77.90;;;;;;4992573;28;20049;-71
2022/02/23 04:32:34;;;;;;;4.00;0.90;;;6.10;78.90;;;;;;4990771;28;20061;-70
2022/02/23 04:35:01;;;;;;;6.65;1.05;;;6.20;78.90;;;;;;4991213;28;22217;-71
2022/02/23 04:37:29;;;;;;;4.90;0.95;;;6.30;79.00;;;;;;4990384;28;20057;-71
2022/02/23 04:39:59;;;;;;;3.75;0.68;;;6.20;79.90;;;;;;4992131;28;20077;-70
2022/02/23 04:42:27;;;;;;;4.38;1.10;;;6.10;80.30;;;;;;4987163;28;20099;-71
2022/02/23 04:45:00;;;;;;;2.90;0.93;;;6.20;80.40;;;;;;5004716;28;20610;-71
2022/02/23 04:47:29;;;;;;;4.55;1.23;;;6.30;80.50;;;;;;4990489;28;20090;-71
2022/02/23 04:49:57;;;;;;;3.67;0.90;;;6.30;80.90;;;;;;5007951;28;20049;-70
2022/02/23 04:52:24;;;;;;;3.85;0.95;;;6.30;81.00;;;;;;5006087;28;20643;-71
2022/02/23 04:54:54;;;;;;;4.13;0.95;;;6.30;81.20;;;;;;4992594;28;20054;-71
2022/02/23 04:57:22;;;;;;;4.93;0.98;;;6.40;80.80;;;;;;4990742;28;20104;-70
2022/02/23 04:59:50;;;;;;;2.85;1.10;;;6.40;80.80;;;;;;4990231;28;20049;-71
2022/02/23 05:02:17;;;;;;;3.88;1.10;;;6.50;80.90;;;;;;5007397;28;20128;-71
2022/02/23 05:04:44;;;;;;;6.50;1.63;;;6.50;80.90;;;;;;4991871;28;20939;-71
2022/02/23 05:07:13;;;;;;;4.03;0.93;;;6.60;80.40;;;;;;4992770;28;20065;-71
2022/02/23 05:09:41;;;;;;;6.55;1.42;;;6.50;80.50;;;;;;4975341;28;20060;-71
2022/02/23 05:12:08;;;;;;;7.95;1.27;;;6.60;80.60;;;;;;4994797;28;20128;-71
2022/02/23 05:14:36;;;;;;;6.45;1.55;;;6.70;80.20;;;;;;4992253;28;20038;-71
2022/02/23 05:17:03;;;;;;;3.60;1.10;;;6.80;80.30;;;;;;4989636;28;20041;-71
2022/02/23 05:19:32;;;;;;;5.57;1.58;;;6.70;80.30;;;;;;4992416;28;20049;-71
2022/02/23 05:21:59;;;;;;;4.13;1.05;;;6.80;80.40;;;;;;4990416;28;20577;-71
2022/02/23 05:24:28;;;;;;;7.28;2.10;;;6.70;80.50;;;;;;4994255;28;20516;-71
2022/02/23 05:26:56;;;;;;;4.60;1.00;;;6.50;81.40;;;;;;4995337;28;20749;-71
2022/02/23 05:29:24;;;;;;;5.75;0.93;;;6.40;82.00;;;;;;4992908;28;20046;-71
2022/02/23 05:31:52;;;;;;;4.15;1.13;;;6.30;83.50;;;;;;4991582;28;20509;-71
2022/02/23 05:34:20;;;;;;;2.63;0.85;;;6.30;83.60;;;;;;4973432;28;20140;-71
2022/02/23 05:36:47;;;;;;;7.38;1.05;;;6.30;84.00;;;;;;4992750;28;20779;-71
2022/02/23 05:39:14;;;;;;;29.15;9.38;;;6.40;84.30;;;;;;4993779;28;20042;-71
2022/02/23 05:41:42;;;;;;;27.77;12.45;;;6.30;84.00;;;;;;4987211;28;20180;-71
2022/02/23 05:44:09;;;;;;;15.35;5.80;;;6.40;84.50;;;;;;4990068;28;20042;-71
2022/02/23 05:46:36;;;;;;;7.05;2.10;;;6.20;85.00;;;;;;4992307;28;20170;-71
2022/02/23 05:49:04;;;;;;;6.03;1.63;;;6.30;86.20;;;;;;4990187;28;20168;-71
2022/02/23 05:51:37;;;;;;;5.22;2.40;;;6.30;85.70;;;;;;4995598;28;20041;-71
2022/02/23 05:54:05;;;;;;;6.72;1.88;;;6.50;85.30;;;;;;4993244;28;20416;-71
2022/02/23 05:56:33;;;;;;;2.40;0.80;;;6.60;85.10;;;;;;4995010;28;20065;-71
2022/02/23 05:59:01;;;;;;;5.75;2.03;;;6.60;85.10;;;;;;4996671;28;20085;-71
2022/02/23 06:01:28;;;;;;;5.13;2.10;;;6.50;86.40;;;;;;4995988;28;20041;-71
2022/02/23 06:03:55;;;;;;;5.72;1.48;;;6.40;87.20;;;;;;5008894;28;20682;-71
2022/02/23 06:06:22;;;;;;;9.25;1.38;;;6.30;87.50;;;;;;4995568;28;20193;-71
2022/02/23 06:08:49;;;;;;;4.05;1.73;;;6.30;88.30;;;;;;4994791;28;20651;-71
2022/02/23 06:11:19;;;;;;;7.18;4.07;;;6.30;88.00;;;;;;5011111;28;20173;-71
2022/02/23 06:13:53;;;;;;;6.72;2.05;;;6.50;87.90;;;;;;4995713;28;20058;-71
2022/02/23 06:16:22;;;;;;;6.00;2.13;;;6.50;87.50;;;;;;5008541;28;20047;-71
2022/02/23 06:18:50;;;;;;;5.32;1.73;;;6.40;88.80;;;;;;4994186;28;20842;-71
2022/02/23 06:21:18;;;;;;;6.20;1.63;;;6.30;88.50;;;;;;4995171;28;20038;-70
2022/02/23 06:23:45;;;;;;;8.18;2.00;;;6.30;89.30;;;;;;4993529;28;20046;-71
2022/02/23 06:26:13;;;;;;;4.90;1.63;;;6.40;89.40;;;;;;4992918;28;20037;-70
2022/02/23 06:28:40;;;;;;;6.60;1.85;;;6.50;89.10;;;;;;4996297;28;20065;-70
2022/02/23 06:31:08;;;;;;;4.72;1.13;;;6.50;89.00;;;;;;4994489;28;20046;-70
2022/02/23 06:33:35;;;;;;;4.75;2.22;;;6.30;90.10;;;;;;4991158;28;20788;-71
2022/02/23 06:36:02;;;;;;;5.05;1.15;;;6.40;90.30;;;;;;4993406;28;20505;-71
2022/02/23 06:38:29;;;;;;;2.88;1.33;;;6.40;90.40;;;;;;4990842;28;20061;-71
2022/02/23 06:40:58;;;;;;;5.57;1.65;;;6.40;90.70;;;;;;4994652;28;20046;-70
2022/02/23 06:43:25;;;;;;;5.05;2.20;;;6.50;90.30;;;;;;4975595;28;20120;-70
2022/02/23 06:45:56;;;;;;;10.38;4.30;;;6.70;90.30;;;;;;5008934;28;20068;-71
2022/02/23 06:48:26;;;;;;;7.25;3.25;;;6.60;90.70;;;;;;5008148;28;20038;-71
2022/02/23 06:50:53;;;;;;;9.20;3.75;;;6.70;90.40;;;;;;4992359;28;20066;-70
2022/02/23 06:53:20;;;;;;;4.82;1.92;;;6.60;90.70;;;;;;4992246;28;21179;-70
2022/02/23 06:55:48;;;;;;;21.13;8.38;;;6.60;91.20;;;;;;4995650;28;20678;-70
2022/02/23 06:58:15;;;;;;;9.32;4.03;;;6.60;91.50;;;;;;4994272;28;20137;-70
2022/02/23 07:00:42;;;;;;;15.32;4.63;;;6.80;92.00;;;;;;4973169;28;20076;-71
2022/02/23 07:03:09;;;;;;;11.00;2.95;;;6.90;90.70;;;;;;5007791;28;20126;-71
2022/02/23 07:05:37;;;;;;;7.65;3.92;;;6.90;90.30;;;;;;4992894;28;20042;-71
2022/02/23 07:08:06;;;;;;;7.32;3.85;;;7.00;90.30;;;;;;4994110;28;20033;-71
2022/02/23 07:10:35;;;;;;;5.50;2.15;;;7.10;89.30;;;;;;4996248;28;20045;-71
2022/02/23 07:13:06;;;;;;;8.85;3.00;;;7.00;87.10;;;;;;4993706;28;20050;-70
2022/02/23 07:15:34;;;;;;;9.35;3.70;;;7.00;88.30;;;;;;4994643;28;20049;-71
2022/02/23 07:18:02;;;;;;;6.45;2.30;;;7.10;88.90;;;;;;5005132;28;20074;-70
2022/02/23 07:20:29;;;;;;;7.38;2.47;;;7.20;88.20;;;;;;4995064;28;20038;-70
2022/02/23 07:22:56;;;;;;;3.72;1.67;;;7.20;88.70;;;;;;4994913;28;20561;-71
2022/02/23 07:25:23;;;;;;;9.20;1.77;;;7.20;89.00;;;;;;5006925;28;20105;-71
2022/02/23 07:27:51;;;;;;;6.90;1.67;;;7.20;88.80;;;;;;4993403;28;20048;-71
2022/02/23 07:30:18;;;;;;;26.45;8.95;;;7.20;88.50;;;;;;4993605;28;20041;-71
2022/02/23 07:32:48;;;;;;;10.48;3.85;;;7.20;87.60;;;;;;4990234;28;20050;-71
2022/02/23 07:35:16;;;;;;;8.27;3.13;;;7.20;87.10;;;;;;4994577;28;20501;-71
2022/02/23 07:37:45;;;;;;;5.00;2.60;;;7.10;88.20;;;;;;4994423;28;20177;-71
2022/02/23 07:40:20;;;;;;;5.03;2.10;;;7.00;88.00;;;;;;4991374;28;20073;-71
2022/02/23 07:43:08;;;;;;;9.98;4.32;;;7.10;88.30;;;;;;4993820;28;20121;-71
2022/02/23 07:45:40;;;;;;;7.85;3.67;;;7.00;89.10;;;;;;4989976;28;20046;-71
2022/02/23 07:48:11;;;;;;;12.50;3.75;;;7.10;89.10;;;;;;4994801;28;20041;-71
2022/02/23 07:50:38;;;;;;;8.52;3.25;;;7.10;89.60;;;;;;5006101;28;20094;-71
2022/02/23 07:53:06;;;;;;;13.48;4.25;;;7.10;88.70;;;;;;4997095;28;20037;-71
2022/02/23 07:55:33;;;;;;;7.88;2.83;;;7.00;88.40;;;;;;4994097;28;20966;-71
2022/02/23 07:58:03;;;;;;;8.50;2.85;;;7.10;88.20;;;;;;4976714;28;20042;-71
2022/02/23 08:00:31;;;;;;;9.55;2.70;;;7.00;86.70;;;;;;4992295;28;20081;-71
2022/02/23 08:02:59;;;;;;;4.57;1.40;;;7.00;87.00;;;;;;4991288;28;20068;-71
2022/02/23 08:05:26;;;;;;;5.97;2.00;;;6.90;85.70;;;;;;4992070;28;20048;-71
2022/02/23 08:07:55;;;;;;;7.03;2.72;;;6.90;87.90;;;;;;4989493;28;20046;-71
2022/02/23 08:10:24;;;;;;;4.47;0.98;;;7.00;87.30;;;;;;4992876;28;20058;-71
2022/02/23 08:12:55;;;;;;;8.07;1.50;;;7.10;86.60;;;;;;4989624;28;20495;-71
2022/02/23 08:20:55;;;;;;;4.28;1.58;;;7.30;86.10;;;;;;4994700;28;20502;-71
2022/02/23 08:23:23;;;;;;;6.60;1.35;;;7.40;86.10;;;;;;4989793;28;20041;-71
2022/02/23 08:25:50;;;;;;;7.75;1.50;;;7.40;85.70;;;;;;4995608;28;20042;-71
2022/02/23 08:28:18;;;;;;;2.55;1.13;;;7.40;86.30;;;;;;5008361;28;20060;-71
2022/02/23 08:30:48;;;;;;;4.53;1.58;;;7.30;85.90;;;;;;5007366;28;20160;-71
2022/02/23 08:33:16;;;;;;;8.73;1.88;;;7.40;86.60;;;;;;4993661;28;20438;-71
2022/02/23 08:35:45;;;;;;;6.88;1.83;;;7.20;85.70;;;;;;4993159;28;20085;-71
2022/02/23 08:38:14;;;;;;;5.07;1.40;;;7.20;87.30;;;;;;4992478;28;20073;-71
2022/02/23 08:40:44;;;;;;;4.63;1.38;;;7.10;87.30;;;;;;4972700;28;20069;-71
2022/02/23 08:43:13;;;;;;;4.65;1.52;;;7.10;88.90;;;;;;4998472;28;20037;-71
2022/02/23 08:45:41;;;;;;;3.78;1.40;;;7.20;89.30;;;;;;4990143;28;20506;-71
2022/02/23 08:48:09;;;;;;;5.70;1.30;;;7.20;88.80;;;;;;4992286;28;20108;-70
2022/02/23 08:50:37;;;;;;;15.57;4.30;;;7.10;89.60;;;;;;5000112;28;20405;-71
2022/02/23 08:53:04;;;;;;;6.45;2.30;;;7.10;90.10;;;;;;4990584;28;20137;-71
2022/02/23 08:55:32;;;;;;;18.67;5.95;;;7.10;90.70;;;;;;5007680;28;21240;-71
2022/02/23 08:58:01;;;;;;;57.22;17.42;;;7.30;90.90;;;;;;4993027;28;20042;-71
2022/02/23 09:00:30;;;;;;;23.02;7.22;;;7.40;91.40;;;;;;4990131;28;20034;-71
2022/02/23 09:03:00;;;;;;;10.93;3.20;;;7.50;90.70;;;;;;4994455;28;20084;-71
2022/02/23 09:05:27;;;;;;;5.78;1.35;;;7.40;90.80;;;;;;4989456;28;20062;-71
2022/02/23 09:07:54;;;;;;;2.83;1.25;;;7.40;90.60;;;;;;4991188;28;20057;-71
2022/02/23 09:10:21;;;;;;;4.53;1.35;;;7.40;90.90;;;;;;4992820;28;20129;-71
2022/02/23 09:12:49;;;;;;;4.70;1.63;;;7.30;91.10;;;;;;4990982;28;20473;-71
2022/02/23 09:15:17;;;;;;;5.07;1.42;;;7.30;91.50;;;;;;4993690;28;20511;-72
2022/02/23 09:17:47;;;;;;;4.55;1.92;;;7.40;91.50;;;;;;4992580;28;20183;-71
2022/02/23 09:20:14;;;;;;;3.47;1.65;;;7.60;91.60;;;;;;4990664;28;20054;-71
2022/02/23 09:22:41;;;;;;;5.65;1.38;;;7.90;91.20;;;;;;4975654;28;20038;-71
2022/02/23 09:25:08;;;;;;;2.95;1.15;;;8.10;91.30;;;;;;5009818;28;20046;-71
2022/02/23 09:27:35;;;;;;;4.72;1.20;;;8.30;90.90;;;;;;5013535;28;20050;-71
2022/02/23 09:30:12;;;;;;;3.53;1.60;;;8.50;90.70;;;;;;4994094;28;20038;-71
2022/02/23 09:32:40;;;;;;;7.30;1.63;;;8.70;90.70;;;;;;4996758;28;20448;-71
2022/02/23 09:35:09;;;;;;;5.95;1.30;;;9.00;89.70;;;;;;4994867;28;20073;-71
2022/02/23 09:37:37;;;;;;;6.20;1.70;;;9.10;90.30;;;;;;4995764;28;20050;-71
2022/02/23 09:40:09;;;;;;;3.97;1.33;;;9.30;90.00;;;;;;4995211;28;20086;-71
2022/02/23 09:42:36;;;;;;;5.32;1.27;;;9.60;89.30;;;;;;4997131;28;20041;-71
2022/02/23 09:45:06;;;;;;;5.15;1.60;;;9.60;88.70;;;;;;4998829;28;20053;-71
2022/02/23 09:47:41;;;;;;;6.93;2.13;;;9.70;89.00;;;;;;5009685;28;20514;-71
2022/02/23 09:50:21;;;;;;;4.50;1.42;;;9.80;88.70;;;;;;4996080;28;20128;-71
2022/02/23 09:52:50;;;;;;;9.95;3.15;;;10.00;88.90;;;;;;4995152;28;20048;-72
2022/02/23 09:55:17;;;;;;;4.90;1.80;;;10.20;87.80;;;;;;4996202;28;20120;-71
2022/02/23 09:57:45;;;;;;;6.47;1.70;;;10.30;86.80;;;;;;4996221;28;20145;-71
2022/02/23 10:00:13;;;;;;;3.08;1.15;;;10.60;86.00;;;;;;4996715;28;20084;-71
2022/02/23 10:02:40;;;;;;;1.60;0.70;;;10.60;82.90;;;;;;4996090;28;20046;-71
2022/02/23 10:05:08;;;;;;;8.05;1.52;;;10.70;81.50;;;;;;4994325;28;20489;-71
2022/02/23 10:07:40;;;;;;;3.00;0.52;;;10.90;81.00;;;;;;4998962;28;20220;-71
2022/02/23 10:10:10;;;;;;;2.95;0.43;;;11.00;77.90;;;;;;4991739;28;20042;-71
2022/02/23 10:12:40;;;;;;;2.85;0.40;;;11.10;78.50;;;;;;4992509;28;20042;-71
2022/02/23 10:15:19;;;;;;;1.95;0.40;;;11.20;77.50;;;;;;4997356;28;20052;-72
2022/02/23 10:17:48;;;;;;;1.42;0.40;;;11.20;74.90;;;;;;5009752;28;20410;-71
2022/02/23 10:20:25;;;;;;;2.08;0.32;;;11.10;72.90;;;;;;4993587;28;20053;-72
2022/02/23 10:22:57;;;;;;;5.68;0.43;;;11.00;70.20;;;;;;4992991;28;20039;-72
2022/02/23 10:25:31;;;;;;;3.47;0.30;;;11.00;70.00;;;;;;4992039;28;20580;-71
2022/02/23 10:28:14;;;;;;;2.90;0.38;;;10.90;68.20;;;;;;4993683;28;20042;-71
2022/02/23 10:31:02;;;;;;;2.22;0.38;;;11.00;70.10;;;;;;5010099;28;20038;-71
2022/02/23 10:33:36;;;;;;;1.52;0.57;;;11.10;70.20;;;;;;4993634;28;20042;-71
2022/02/23 10:36:22;;;;;;;2.65;0.30;;;11.30;69.10;;;;;;4994513;28;20156;-71
2022/02/23 10:39:00;;;;;;;12.27;1.30;;;11.60;69.00;;;;;;4993562;28;20214;-71
2022/02/23 10:41:31;;;;;;;2.25;0.40;;;11.80;66.50;;;;;;4996115;28;20042;-72
2022/02/23 10:44:04;;;;;;;3.35;0.32;;;11.80;66.30;;;;;;4994692;28;20042;-71
2022/02/23 10:46:32;;;;;;;2.28;0.40;;;12.10;65.80;;;;;;4995965;28;20050;-71
2022/02/23 10:49:01;;;;;;;3.38;0.32;;;12.20;66.10;;;;;;4996054;28;20046;-71
2022/02/23 10:51:30;;;;;;;3.92;0.40;;;12.20;64.80;;;;;;4996896;28;20041;-71
2022/02/23 10:54:05;;;;;;;1.08;0.20;;;12.10;65.00;;;;;;4995039;28;20061;-71
2022/02/23 10:56:35;;;;;;;1.50;0.28;;;12.00;63.90;;;;;;5012582;28;20592;-71
2022/02/23 10:59:04;;;;;;;1.00;0.20;;;12.10;62.80;;;;;;4993988;28;20134;-72
2022/02/23 11:01:32;;;;;;;1.95;0.40;;;12.10;62.40;;;;;;5009873;28;20045;-71
2022/02/23 11:03:59;;;;;;;3.65;0.65;;;12.10;62.50;;;;;;4993131;28;20089;-71
2022/02/23 11:06:26;;;;;;;1.70;0.10;;;12.20;60.40;;;;;;5010674;28;20049;-71
2022/02/23 11:08:56;;;;;;;3.35;0.65;;;12.40;59.60;;;;;;4993951;28;20092;-71
2022/02/23 11:11:26;;;;;;;0.65;0.10;;;12.50;58.30;;;;;;4992658;28;20049;-72
2022/02/23 11:13:58;;;;;;;1.45;0.20;;;12.60;56.80;;;;;;4994701;28;20050;-71
2022/02/23 11:16:33;;;;;;;4.35;0.45;;;12.60;57.60;;;;;;4995524;28;20038;-71
2022/02/23 11:19:02;;;;;;;5.53;0.43;;;12.70;57.50;;;;;;4992396;28;20044;-71
2022/02/23 11:21:34;;;;;;;0.80;0.15;;;12.70;56.60;;;;;;5009124;28;20045;-72
2022/02/23 11:24:09;;;;;;;3.28;0.20;;;12.50;56.30;;;;;;4996050;28;20122;-71
2022/02/23 11:26:38;;;;;;;1.95;0.17;;;12.10;57.40;;;;;;4996851;28;20078;-71
2022/02/23 11:29:23;;;;;;;1.67;0.20;;;12.30;57.70;;;;;;4994246;28;20093;-72
2022/02/23 11:31:52;;;;;;;3.15;0.30;;;12.50;57.40;;;;;;4995990;28;20046;-71
2022/02/23 11:34:24;;;;;;;0.50;0.10;;;12.70;57.90;;;;;;4990985;28;20061;-71
2022/02/23 11:36:54;;;;;;;2.20;0.45;;;12.90;57.60;;;;;;4994295;28;20434;-71
2022/02/23 11:39:26;;;;;;;4.18;1.15;;;13.10;56.90;;;;;;4995561;28;20046;-72
2022/02/23 11:41:58;;;;;;;1.27;0.22;;;13.10;55.50;;;;;;4994111;28;20070;-71
2022/02/23 11:44:27;;;;;;;1.55;0.20;;;12.70;56.00;;;;;;4992963;28;20054;-71
2022/02/23 11:47:13;;;;;;;2.17;0.28;;;12.90;55.50;;;;;;4993964;28;20050;-71
2022/02/23 11:49:50;;;;;;;4.20;0.17;;;13.00;54.60;;;;;;5008468;28;20068;-71
2022/02/23 11:52:20;;;;;;;2.97;0.20;;;13.00;54.90;;;;;;4991921;28;20445;-71
2022/02/23 11:55:42;;;;;;;2.20;0.45;;;12.90;55.60;;;;;;5009080;28;20049;-71
2022/02/23 11:58:09;;;;;;;5.10;0.73;;;12.80;55.70;;;;;;4959183;28;20050;-71
2022/02/23 12:00:36;;;;;;;1.42;0.30;;;12.60;55.10;;;;;;4958546;28;20070;-71
2022/02/23 12:03:30;;;;;;;2.25;0.20;;;12.60;55.80;;;;;;4977206;28;20077;-71
2022/02/23 12:06:06;;;;;;;2.60;0.30;;;12.70;56.00;;;;;;4993558;28;20116;-71
2022/02/23 12:08:33;;;;;;;1.55;0.15;;;13.00;54.10;;;;;;4995427;28;20053;-72
2022/02/23 12:11:10;;;;;;;2.88;0.75;;;13.00;53.60;;;;;;5004340;28;20046;-71
2022/02/23 12:13:44;;;;;;;2.65;0.20;;;12.80;54.70;;;;;;4993902;28;20378;-71
2022/02/23 12:16:27;;;;;;;1.77;0.22;;;13.10;54.80;;;;;;4994071;28;20117;-71
2022/02/23 12:18:58;;;;;;;2.65;0.10;;;13.30;54.40;;;;;;4995568;28;20046;-71
2022/02/23 12:21:42;;;;;;;3.22;0.63;;;13.40;53.50;;;;;;4992502;28;20049;-71
2022/02/23 12:24:20;;;;;;;3.05;0.30;;;13.40;52.80;;;;;;4991571;28;20050;-72
2022/02/23 12:26:53;;;;;;;1.92;0.20;;;13.60;51.40;;;;;;4995758;28;20057;-71
2022/02/23 12:29:27;;;;;;;3.00;0.30;;;13.90;51.10;;;;;;4993934;28;20042;-71
2022/02/23 12:32:07;;;;;;;1.63;0.10;;;13.90;49.90;;;;;;4995331;28;20038;-71
2022/02/23 12:34:36;;;;;;;3.05;0.30;;;13.60;49.70;;;;;;4965780;28;20441;-71
2022/02/23 12:37:24;;;;;;;0.85;0.22;;;13.20;50.50;;;;;;4985424;28;20063;-71
2022/02/23 12:39:54;;;;;;;2.53;0.10;;;12.90;51.40;;;;;;4993719;28;20133;-71
2022/02/23 12:42:26;;;;;;;1.23;0.10;;;12.90;52.40;;;;;;4993417;28;20049;-71
2022/02/23 12:44:53;;;;;;;3.03;0.27;;;13.10;50.50;;;;;;4992712;28;20181;-71
2022/02/23 12:47:55;;;;;;;2.05;0.10;;;13.00;50.10;;;;;;4991803;28;20596;-71
2022/02/23 12:50:27;;;;;;;0.80;0.10;;;13.10;49.60;;;;;;4993244;28;20178;-71
2022/02/23 12:52:54;;;;;;;4.00;0.22;;;13.10;49.60;;;;;;4991474;28;20042;-71
2022/02/23 12:55:21;;;;;;;2.38;0.22;;;13.20;50.50;;;;;;4989366;28;20428;-71
2022/02/23 12:57:52;;;;;;;1.52;0.10;;;13.20;50.00;;;;;;4994261;28;20053;-71
2022/02/23 13:00:24;;;;;;;1.50;0.20;;;13.10;50.30;;;;;;4991630;28;20045;-71
2022/02/23 13:02:52;;;;;;;1.98;0.10;;;13.10;50.90;;;;;;4976062;28;20046;-71
2022/02/23 13:05:21;;;;;;;2.75;0.52;;;12.90;51.40;;;;;;4993802;28;20042;-71
2022/02/23 13:07:48;;;;;;;1.23;0.20;;;12.70;51.10;;;;;;4989948;28;20070;-71
2022/02/23 13:10:15;;;;;;;1.27;0.30;;;12.60;52.20;;;;;;5008500;28;20521;-71